createdAt,value
2019-02-05T07:15:47.073Z,5.57
2019-02-05T07:18:28.246Z,5.60
2019-02-05T07:21:09.683Z,5.07
2019-02-05T07:26:35.253Z,5.80
2019-02-05T07:29:15.722Z,5.10
2019-02-05T07:31:44.507Z,5.13
2019-02-05T07:34:13.518Z,6.73
2019-02-05T07:36:42.278Z,5.33
2019-02-05T07:39:11.435Z,5.80
2019-02-05T07:41:40.198Z,5.30
2019-02-05T07:44:08.949Z,5.83
2019-02-05T07:46:37.709Z,5.53
2019-02-05T07:49:06.410Z,6.80
2019-02-05T07:51:35.111Z,5.57
2019-02-05T07:54:03.897Z,5.47
2019-02-05T07:56:33.075Z,5.90
2019-02-05T07:59:09.829Z,5.37
2019-02-05T08:01:32.249Z,5.87
2019-02-05T08:04:01.005Z,5.80
2019-02-05T08:06:29.774Z,5.73
2019-02-05T08:08:58.457Z,6.03
2019-02-05T08:11:27.302Z,5.93
2019-02-05T08:13:56.898Z,6.87
2019-02-05T08:16:25.670Z,6.90
2019-02-05T08:18:54.434Z,5.47
2019-02-05T08:21:23.284Z,5.50
2019-02-05T08:23:52.039Z,6.83
2019-02-05T08:26:20.726Z,5.13
2019-02-05T08:28:49.411Z,5.80
2019-02-05T08:31:18.183Z,5.93
2019-02-05T08:33:47.346Z,5.47
2019-02-05T08:36:16.121Z,6.27
2019-02-05T08:38:44.882Z,5.27
2019-02-05T08:41:13.650Z,6.07
2019-02-05T08:43:42.412Z,5.63
2019-02-05T08:46:11.190Z,6.27
2019-02-05T08:48:39.958Z,7.17
2019-02-05T08:51:09.119Z,5.97
2019-02-05T08:53:37.871Z,5.67
2019-02-05T08:56:06.629Z,6.43
2019-02-05T08:58:35.391Z,6.27
2019-02-05T09:01:05.025Z,6.90
2019-02-05T09:03:33.778Z,5.77
2019-02-05T09:06:02.479Z,7.03
2019-02-05T09:08:31.542Z,5.93
2019-02-05T09:11:00.382Z,5.83
2019-02-05T09:13:29.146Z,7.17
2019-02-05T09:15:57.918Z,6.23
2019-02-05T09:18:26.684Z,6.43
2019-02-05T09:20:55.529Z,7.67
2019-02-05T09:23:24.358Z,6.23
2019-02-05T09:25:53.696Z,6.00
2019-02-05T09:28:22.446Z,7.00
2019-02-05T09:30:51.209Z,7.10
2019-02-05T09:33:19.980Z,6.93
2019-02-05T09:35:48.747Z,6.43
2019-02-05T09:38:17.509Z,6.80
2019-02-05T09:40:46.340Z,6.47
2019-02-05T09:43:15.532Z,6.33
2019-02-05T09:45:44.339Z,6.20
2019-02-05T09:48:13.185Z,5.80
2019-02-05T09:50:44.787Z,6.43
2019-02-05T09:53:12.363Z,6.80
2019-02-05T09:55:41.118Z,7.10
2019-02-05T09:58:09.921Z,6.93
2019-02-05T10:00:40.208Z,6.13
2019-02-05T10:03:09.244Z,6.80
2019-02-05T10:05:38.073Z,6.40
2019-02-05T10:08:07.212Z,6.43
2019-02-05T10:10:35.970Z,7.20
2019-02-05T10:13:05.302Z,7.03
2019-02-05T10:15:35.509Z,7.37
2019-02-05T10:18:05.741Z,7.10
2019-02-05T10:20:34.427Z,7.47
2019-02-05T10:23:05.263Z,6.40
2019-02-05T10:25:34.189Z,6.07
2019-02-05T10:28:03.028Z,6.27
2019-02-05T10:30:34.075Z,6.50
2019-02-05T10:33:03.777Z,6.87
2019-02-05T10:35:32.601Z,6.97
2019-02-05T10:38:01.425Z,7.50
2019-02-05T10:40:30.483Z,6.70
2019-02-05T10:42:59.187Z,7.33
2019-02-05T10:45:28.185Z,6.90
2019-02-05T10:47:57.038Z,6.90
2019-02-05T10:50:26.074Z,7.37
2019-02-05T10:52:54.914Z,6.77
2019-02-05T10:55:23.975Z,6.67
2019-02-05T10:57:53.017Z,7.53
2019-02-05T11:00:25.409Z,7.27
2019-02-05T11:02:54.834Z,7.37
2019-02-05T11:05:25.826Z,8.00
2019-02-05T11:07:54.662Z,7.23
2019-02-05T11:10:23.466Z,8.00
2019-02-05T11:12:52.310Z,6.70
2019-02-05T11:15:23.317Z,7.53
2019-02-05T11:17:52.081Z,7.93
2019-02-05T11:20:22.859Z,7.80
2019-02-05T11:22:51.815Z,7.43
2019-02-05T11:25:20.916Z,7.17
2019-02-05T11:27:49.691Z,9.20
2019-02-05T11:30:26.610Z,8.37
2019-02-05T11:32:55.446Z,9.20
2019-02-05T11:35:24.272Z,7.73
2019-02-05T11:37:53.427Z,8.23
2019-02-05T11:40:24.614Z,8.27
2019-02-05T11:42:53.371Z,8.40
2019-02-05T11:45:22.475Z,8.03
2019-02-05T11:47:51.582Z,8.57
2019-02-05T11:50:20.402Z,9.23
2019-02-05T11:52:49.326Z,7.80
2019-02-05T11:55:19.808Z,7.90
2019-02-05T11:57:48.568Z,9.00
2019-02-05T12:00:32.584Z,8.43
2019-02-05T12:02:55.953Z,8.83
2019-02-05T12:05:24.705Z,8.33
2019-02-05T12:07:53.842Z,9.00
2019-02-05T12:10:22.610Z,8.40
2019-02-05T12:12:51.374Z,8.27
2019-02-05T12:15:20.284Z,9.20
2019-02-05T12:17:49.389Z,9.47
2019-02-05T12:20:18.331Z,8.53
2019-02-05T12:22:48.301Z,9.17
2019-02-05T12:25:17.449Z,9.27
2019-02-05T12:27:46.393Z,9.63
2019-02-05T12:30:18.868Z,10.00
2019-02-05T12:32:47.834Z,9.63
2019-02-05T12:35:16.670Z,8.83
2019-02-05T12:37:45.431Z,10.50
2019-02-05T12:40:15.399Z,9.43
2019-02-05T12:42:44.649Z,9.50
2019-02-05T12:45:16.257Z,11.73
2019-02-05T12:47:44.955Z,9.83
2019-02-05T12:50:16.908Z,9.43
2019-02-05T12:52:45.751Z,9.97
2019-02-05T12:55:16.295Z,9.67
2019-02-05T12:57:45.309Z,10.30
2019-02-05T13:00:17.949Z,11.30
2019-02-05T13:02:46.714Z,10.70
2019-02-05T13:05:16.326Z,10.67
2019-02-05T13:07:45.005Z,10.03
2019-02-05T13:10:15.825Z,10.90
2019-02-05T13:12:44.492Z,10.40
2019-02-05T13:15:13.534Z,9.97
2019-02-05T13:17:42.210Z,10.00
2019-02-05T13:20:17.639Z,11.30
2019-02-05T13:22:46.413Z,10.80
2019-02-05T13:25:18.081Z,10.97
2019-02-05T13:27:46.830Z,10.47
2019-02-05T13:30:18.011Z,10.40
2019-02-05T13:32:46.690Z,11.03
2019-02-05T13:35:15.799Z,10.93
2019-02-05T13:37:44.478Z,11.70
2019-02-05T13:40:15.627Z,10.67
2019-02-05T13:42:44.299Z,11.37
2019-02-05T13:45:13.887Z,12.00
2019-02-05T13:47:42.567Z,10.73
2019-02-05T13:50:14.870Z,11.70
2019-02-05T13:52:43.815Z,11.90
2019-02-05T13:55:16.031Z,10.73
2019-02-05T13:57:44.719Z,11.43
2019-02-05T14:00:17.930Z,11.77
2019-02-05T14:02:46.606Z,11.93
2019-02-05T14:05:15.285Z,11.13
2019-02-05T14:07:44.333Z,12.20
2019-02-05T14:10:16.747Z,11.40
2019-02-05T14:12:45.426Z,11.47
2019-02-05T14:15:14.611Z,11.67
2019-02-05T14:17:43.298Z,12.00
2019-02-05T14:20:13.231Z,12.00
2019-02-05T14:22:42.378Z,13.07
2019-02-05T14:25:12.359Z,12.40
2019-02-05T14:27:41.038Z,13.17
2019-02-05T14:30:14.387Z,12.70
2019-02-05T14:32:43.154Z,12.97
2019-02-05T14:35:11.913Z,12.77
2019-02-05T14:37:40.862Z,12.17
2019-02-05T14:40:12.158Z,12.97
2019-02-05T14:42:40.866Z,12.30
2019-02-05T14:45:10.543Z,13.30
2019-02-05T14:47:39.230Z,13.20
2019-02-05T14:50:12.738Z,12.80
2019-02-05T14:52:41.418Z,11.77
2019-02-05T14:55:10.253Z,11.87
2019-02-05T14:57:38.936Z,12.43
2019-02-05T15:00:11.149Z,12.80
2019-02-05T15:02:39.826Z,14.10
2019-02-05T15:05:09.551Z,11.83
2019-02-05T15:07:38.231Z,13.70
2019-02-05T15:10:08.761Z,13.17
2019-02-05T15:12:37.516Z,13.10
2019-02-05T15:15:08.898Z,12.70
2019-02-05T15:17:37.703Z,13.00
2019-02-05T15:20:10.987Z,13.80
2019-02-05T15:22:39.687Z,14.17
2019-02-05T15:25:09.102Z,13.93
2019-02-05T15:27:37.775Z,14.13
2019-02-05T15:30:09.825Z,13.10
2019-02-05T15:32:45.896Z,14.10
2019-02-05T15:35:14.666Z,13.63
2019-02-05T15:37:43.440Z,13.43
2019-02-05T15:40:12.822Z,13.37
2019-02-05T15:42:41.493Z,14.23
2019-02-05T15:45:11.191Z,14.10
2019-02-05T15:47:40.238Z,14.73
2019-02-05T15:50:09.084Z,14.53
2019-02-05T15:52:37.769Z,14.77
2019-02-05T15:55:07.049Z,15.63
2019-02-05T15:57:35.728Z,16.87
2019-02-05T16:00:06.441Z,14.73
2019-02-05T16:02:35.485Z,15.10
2019-02-05T16:05:05.491Z,16.00
2019-02-05T16:07:34.153Z,15.47
2019-02-05T16:10:02.915Z,16.53
2019-02-05T16:12:31.594Z,17.07
2019-02-05T16:15:00.404Z,16.60
2019-02-05T16:17:29.119Z,18.43
2019-02-05T16:19:57.791Z,16.27
2019-02-05T16:22:26.767Z,16.93
2019-02-05T16:24:55.622Z,17.13
2019-02-05T16:27:24.393Z,17.47
2019-02-05T16:29:53.334Z,17.30
2019-02-05T16:32:22.022Z,16.80
2019-02-05T16:34:51.194Z,17.57
2019-02-05T16:37:19.883Z,18.53
2019-02-05T16:39:48.555Z,18.83
2019-02-05T16:42:17.233Z,18.40
2019-02-05T16:44:45.985Z,17.00
2019-02-05T16:47:14.678Z,17.67
2019-02-05T16:49:45.086Z,21.07
2019-02-05T16:52:13.782Z,19.03
2019-02-05T16:54:42.459Z,17.60
2019-02-05T16:57:11.154Z,18.93
2019-02-05T16:59:39.848Z,21.13
2019-02-05T17:02:08.682Z,19.73
2019-02-05T17:04:37.367Z,20.57
2019-02-05T17:07:06.377Z,21.10
2019-02-05T17:09:35.054Z,18.30
2019-02-05T17:12:03.814Z,18.97
2019-02-05T17:14:32.493Z,18.10
2019-02-05T17:17:01.259Z,19.67
2019-02-05T17:19:31.810Z,19.80
2019-02-05T17:22:00.347Z,21.73
2019-02-05T17:24:29.034Z,17.90
2019-02-05T17:26:57.790Z,19.90
2019-02-05T17:29:26.468Z,18.87
2019-02-05T17:31:55.235Z,18.20
2019-02-05T17:34:23.911Z,21.33
2019-02-05T17:36:53.078Z,21.17
2019-02-05T17:39:21.766Z,19.40
2019-02-05T17:41:50.522Z,19.47
2019-02-05T17:44:19.193Z,20.27
2019-02-05T17:46:47.881Z,18.83
2019-02-05T17:49:16.710Z,18.20
2019-02-05T17:51:45.397Z,19.10
2019-02-05T17:54:15.145Z,18.93
2019-02-05T17:56:44.133Z,20.30
2019-02-05T17:59:12.888Z,21.13
2019-02-05T18:01:41.584Z,22.17
2019-02-05T18:04:10.260Z,20.67
2019-02-05T18:06:38.959Z,21.33
2019-02-05T18:09:09.191Z,22.00
2019-02-05T18:11:37.890Z,20.43
2019-02-05T18:14:06.727Z,20.77
2019-02-05T18:16:35.426Z,21.57
2019-02-05T18:19:04.179Z,21.57
2019-02-05T18:21:32.879Z,22.83
2019-02-05T18:24:01.855Z,21.53
2019-02-05T18:26:30.549Z,22.43
2019-02-05T18:28:59.318Z,22.33
2019-02-05T18:31:28.102Z,22.70
2019-02-05T18:33:56.803Z,21.23
2019-02-05T18:36:25.507Z,21.70
2019-02-05T18:38:54.198Z,21.83
2019-02-05T18:41:22.880Z,22.90
2019-02-05T18:43:51.657Z,20.57
2019-02-05T18:46:20.497Z,21.13
2019-02-05T18:48:49.168Z,22.07
2019-02-05T18:51:17.853Z,23.27
2019-02-05T18:53:46.538Z,22.17
2019-02-05T18:56:15.573Z,23.60
2019-02-05T18:58:44.271Z,22.90
2019-02-05T19:01:13.011Z,22.77
2019-02-05T19:03:41.711Z,22.73
2019-02-05T19:06:10.382Z,22.43
2019-02-05T19:08:39.053Z,22.83
2019-02-05T19:11:08.729Z,22.70
2019-02-05T19:13:37.472Z,22.87
2019-02-05T19:16:06.230Z,22.03
2019-02-05T19:18:34.900Z,21.97
2019-02-05T19:21:03.549Z,21.90
2019-02-05T19:23:32.216Z,22.57
2019-02-05T19:26:08.974Z,21.17
2019-02-05T19:28:41.940Z,23.87
2019-02-05T19:31:38.969Z,22.87
2019-02-05T19:34:08.198Z,22.87
2019-02-05T19:36:36.929Z,22.50
2019-02-05T19:39:07.796Z,22.43
2019-02-05T19:41:36.470Z,21.47
2019-02-05T19:44:05.307Z,21.07
2019-02-05T19:46:51.961Z,21.60
2019-02-05T19:49:36.026Z,21.20
2019-02-05T19:52:05.674Z,23.50
2019-02-05T19:54:34.374Z,23.23
2019-02-05T19:57:03.134Z,24.53
2019-02-05T19:59:31.834Z,24.30
2019-02-05T20:02:00.791Z,23.67
2019-02-05T20:04:29.554Z,24.17
2019-02-05T20:06:58.230Z,22.30
2019-02-05T20:09:26.932Z,24.23
2019-02-05T20:11:55.661Z,23.20
2019-02-05T20:14:24.423Z,22.83
2019-02-05T20:16:53.108Z,24.53
2019-02-05T20:19:24.596Z,23.40
2019-02-05T20:21:52.547Z,23.43
2019-02-05T20:24:21.318Z,23.50
2019-02-05T20:26:50.041Z,25.47
2019-02-05T20:29:18.790Z,24.57
2019-02-05T20:31:47.470Z,26.70
2019-02-05T20:34:16.152Z,24.30
2019-02-05T20:36:44.999Z,25.40
2019-02-05T20:39:15.508Z,24.60
2019-02-05T20:41:44.276Z,23.63
2019-02-05T20:44:12.969Z,25.10
2019-02-05T20:46:41.715Z,23.80
2019-02-05T20:49:10.393Z,23.93
2019-02-05T20:51:39.130Z,24.67
2019-02-05T20:54:08.214Z,24.60
2019-02-05T20:56:36.894Z,22.83
2019-02-05T20:59:06.134Z,23.90
2019-02-05T21:01:34.816Z,22.70
2019-02-05T21:04:03.770Z,23.23
2019-02-05T21:06:32.446Z,23.47
2019-02-05T21:09:01.134Z,23.03
2019-02-05T21:11:30.104Z,24.77
2019-02-05T21:13:58.933Z,24.43
2019-02-05T21:16:27.613Z,24.03
2019-02-05T21:18:56.399Z,23.50
2019-02-05T21:21:25.066Z,24.00
2019-02-05T21:23:53.749Z,25.60
2019-02-05T21:26:22.414Z,23.93
2019-02-05T21:28:51.081Z,24.53
2019-02-05T21:31:19.912Z,24.20
2019-02-05T21:33:48.618Z,25.00
2019-02-05T21:36:17.287Z,25.67
2019-02-05T21:38:46.032Z,24.60
2019-02-05T21:41:14.704Z,25.83
2019-02-05T21:43:43.758Z,23.90
2019-02-05T21:46:12.436Z,24.00
2019-02-05T21:48:41.128Z,24.00
2019-02-05T21:51:09.963Z,23.67
2019-02-05T21:53:38.663Z,24.97
2019-02-05T21:56:07.415Z,24.40
2019-02-05T21:58:36.179Z,24.73
2019-02-05T22:01:05.739Z,25.77
2019-02-05T22:03:34.505Z,23.23
